sensor_id;sensor_type;location;lat;lon;timestamp;P1;durP1;ratioP1;P2;durP2;ratioP2
33912;SDS011;20200;52.084;5.224;2022-12-05T00:01:28;84.8;;;57.6;;
33912;SDS011;20200;52.084;5.224;2022-12-05T00:03:07;84.8;;;57.5;;
33912;SDS011;20200;52.084;5.224;2022-12-05T00:06:20;80.61;;;55.9;;
33912;SDS011;20200;52.084;5.224;2022-12-05T00:07:58;80.3;;;56.0;;
33912;SDS011;20200;52.084;5.224;2022-12-05T00:09:34;80.61;;;55.2;;
33912;SDS011;20200;52.084;5.224;2022-12-05T00:11:10;79.8;;;56.0;;
33912;SDS011;20200;52.084;5.224;2022-12-05T00:14:24;76.8;;;53.7;;
33912;SDS011;20200;52.084;5.224;2022-12-05T00:16:01;73.7;;;51.6;;
33912;SDS011;20200;52.084;5.224;2022-12-05T00:17:41;79.41;;;54.0;;
33912;SDS011;20200;52.084;5.224;2022-12-05T00:20:53;75.0;;;52.3;;
33912;SDS011;20200;52.084;5.224;2022-12-05T00:22:29;76.0;;;51.3;;
33912;SDS011;20200;52.084;5.224;2022-12-05T00:24:07;75.61;;;52.2;;
33912;SDS011;20200;52.084;5.224;2022-12-05T00:25:47;77.91;;;53.1;;
33912;SDS011;20200;52.084;5.224;2022-12-05T00:28:59;80.8;;;54.8;;
33912;SDS011;20200;52.084;5.224;2022-12-05T00:30:38;73.2;;;49.9;;
33912;SDS011;20200;52.084;5.224;2022-12-05T00:32:14;77.3;;;51.9;;
33912;SDS011;20200;52.084;5.224;2022-12-05T00:35:29;72.7;;;51.5;;
33912;SDS011;20200;52.084;5.224;2022-12-05T00:37:05;75.91;;;52.2;;
33912;SDS011;20200;52.084;5.224;2022-12-05T00:38:41;73.2;;;50.4;;
33912;SDS011;20200;52.084;5.224;2022-12-05T00:40:18;77.5;;;52.4;;
33912;SDS011;20200;52.084;5.224;2022-12-05T00:43:31;72.7;;;51.2;;
33912;SDS011;20200;52.084;5.224;2022-12-05T00:45:08;72.2;;;51.8;;
33912;SDS011;20200;52.084;5.224;2022-12-05T00:46:45;77.0;;;52.9;;
33912;SDS011;20200;52.084;5.224;2022-12-05T00:49:57;76.91;;;52.7;;
33912;SDS011;20200;52.084;5.224;2022-12-05T00:51:34;76.41;;;53.2;;
33912;SDS011;20200;52.084;5.224;2022-12-05T00:53:13;81.2;;;54.7;;
33912;SDS011;20200;52.084;5.224;2022-12-05T00:56:26;77.41;;;52.9;;
33912;SDS011;20200;52.084;5.224;2022-12-05T00:58:03;73.11;;;51.3;;
33912;SDS011;20200;52.084;5.224;2022-12-05T00:59:39;79.5;;;53.1;;
33912;SDS011;20200;52.084;5.224;2022-12-05T01:01:17;78.8;;;53.1;;
33912;SDS011;20200;52.084;5.224;2022-12-05T01:04:33;81.61;;;54.4;;
33912;SDS011;20200;52.084;5.224;2022-12-05T01:06:09;82.4;;;54.8;;
33912;SDS011;20200;52.084;5.224;2022-12-05T01:07:48;80.2;;;54.7;;
33912;SDS011;20200;52.084;5.224;2022-12-05T01:11:02;79.2;;;53.7;;
33912;SDS011;20200;52.084;5.224;2022-12-05T01:12:40;80.3;;;55.1;;
33912;SDS011;20200;52.084;5.224;2022-12-05T01:14:17;81.3;;;54.3;;
33912;SDS011;20200;52.084;5.224;2022-12-05T01:15:55;79.61;;;53.5;;
33912;SDS011;20200;52.084;5.224;2022-12-05T01:19:13;77.61;;;52.3;;
33912;SDS011;20200;52.084;5.224;2022-12-05T01:20:52;84.0;;;55.1;;
33912;SDS011;20200;52.084;5.224;2022-12-05T01:22:29;77.2;;;52.8;;
33912;SDS011;20200;52.084;5.224;2022-12-05T01:25:43;81.61;;;54.3;;
33912;SDS011;20200;52.084;5.224;2022-12-05T01:27:24;75.5;;;53.0;;
33912;SDS011;20200;52.084;5.224;2022-12-05T01:29:01;82.9;;;55.7;;
33912;SDS011;20200;52.084;5.224;2022-12-05T01:30:39;78.3;;;54.5;;
33912;SDS011;20200;52.084;5.224;2022-12-05T01:33:55;82.5;;;55.2;;
33912;SDS011;20200;52.084;5.224;2022-12-05T01:35:34;78.91;;;54.5;;
33912;SDS011;20200;52.084;5.224;2022-12-05T01:37:13;81.0;;;54.2;;
33912;SDS011;20200;52.084;5.224;2022-12-05T01:40:27;81.41;;;54.4;;
33912;SDS011;20200;52.084;5.224;2022-12-05T01:42:04;80.2;;;54.5;;
33912;SDS011;20200;52.084;5.224;2022-12-05T01:43:59;81.91;;;55.9;;
33912;SDS011;20200;52.084;5.224;2022-12-05T01:45:37;80.11;;;55.2;;
33912;SDS011;20200;52.084;5.224;2022-12-05T01:47:17;84.8;;;56.9;;
33912;SDS011;20200;52.084;5.224;2022-12-05T01:50:36;86.2;;;56.9;;
33912;SDS011;20200;52.084;5.224;2022-12-05T01:52:14;83.1;;;55.7;;
33912;SDS011;20200;52.084;5.224;2022-12-05T01:53:54;82.2;;;54.7;;
33912;SDS011;20200;52.084;5.224;2022-12-05T01:57:11;79.5;;;54.0;;
33912;SDS011;20200;52.084;5.224;2022-12-05T01:58:49;79.5;;;54.0;;
33912;SDS011;20200;52.084;5.224;2022-12-05T02:00:28;80.5;;;54.9;;
33912;SDS011;20200;52.084;5.224;2022-12-05T02:02:04;82.7;;;55.4;;
33912;SDS011;20200;52.084;5.224;2022-12-05T02:05:22;80.61;;;54.8;;
33912;SDS011;20200;52.084;5.224;2022-12-05T02:07:03;79.91;;;55.0;;
33912;SDS011;20200;52.084;5.224;2022-12-05T02:08:39;81.5;;;55.1;;
33912;SDS011;20200;52.084;5.224;2022-12-05T02:10:16;81.41;;;55.5;;
33912;SDS011;20200;52.084;5.224;2022-12-05T02:13:40;82.9;;;54.7;;
33912;SDS011;20200;52.084;5.224;2022-12-05T02:15:39;81.61;;;55.0;;
33912;SDS011;20200;52.084;5.224;2022-12-05T02:17:21;83.7;;;56.5;;
33912;SDS011;20200;52.084;5.224;2022-12-05T02:19:17;83.0;;;55.2;;
33912;SDS011;20200;52.084;5.224;2022-12-05T02:21:34;84.8;;;56.1;;
33912;SDS011;20200;52.084;5.224;2022-12-05T02:23:46;76.5;;;53.3;;
33912;SDS011;20200;52.084;5.224;2022-12-05T02:26:01;83.6;;;55.4;;
33912;SDS011;20200;52.084;5.224;2022-12-05T02:29:51;87.7;;;58.1;;
33912;SDS011;20200;52.084;5.224;2022-12-05T02:31:40;81.0;;;54.9;;
33912;SDS011;20200;52.084;5.224;2022-12-05T02:33:28;84.2;;;56.5;;
33912;SDS011;20200;52.084;5.224;2022-12-05T02:37:00;80.3;;;54.3;;
33912;SDS011;20200;52.084;5.224;2022-12-05T02:38:45;76.3;;;54.5;;
33912;SDS011;20200;52.084;5.224;2022-12-05T02:40:33;79.91;;;54.2;;
33912;SDS011;20200;52.084;5.224;2022-12-05T02:42:20;85.7;;;55.6;;
33912;SDS011;20200;52.084;5.224;2022-12-05T02:44:03;77.41;;;52.4;;
33912;SDS011;20200;52.084;5.224;2022-12-05T02:47:28;77.2;;;52.8;;
33912;SDS011;20200;52.084;5.224;2022-12-05T02:49:09;75.3;;;52.7;;
33912;SDS011;20200;52.084;5.224;2022-12-05T02:50:49;76.91;;;52.2;;
33912;SDS011;20200;52.084;5.224;2022-12-05T02:52:28;76.7;;;52.6;;
33912;SDS011;20200;52.084;5.224;2022-12-05T02:55:50;76.0;;;53.4;;
33912;SDS011;20200;52.084;5.224;2022-12-05T02:57:27;79.91;;;53.5;;
33912;SDS011;20200;52.084;5.224;2022-12-05T02:59:04;82.1;;;54.1;;
33912;SDS011;20200;52.084;5.224;2022-12-05T03:00:41;79.41;;;53.4;;
33912;SDS011;20200;52.084;5.224;2022-12-05T03:04:01;76.3;;;53.7;;
33912;SDS011;20200;52.084;5.224;2022-12-05T03:05:42;80.8;;;53.3;;
33912;SDS011;20200;52.084;5.224;2022-12-05T03:07:26;79.5;;;53.7;;
33912;SDS011;20200;52.084;5.224;2022-12-05T03:09:07;76.8;;;53.9;;
33912;SDS011;20200;52.084;5.224;2022-12-05T03:12:27;78.61;;;53.0;;
33912;SDS011;20200;52.084;5.224;2022-12-05T03:14:10;73.8;;;52.4;;
33912;SDS011;20200;52.084;5.224;2022-12-05T03:15:52;81.61;;;56.0;;
33912;SDS011;20200;52.084;5.224;2022-12-05T03:17:36;73.41;;;51.9;;
33912;SDS011;20200;52.084;5.224;2022-12-05T03:19:20;75.91;;;52.0;;
33912;SDS011;20200;52.084;5.224;2022-12-05T03:22:47;74.5;;;52.3;;
33912;SDS011;20200;52.084;5.224;2022-12-05T03:24:29;76.91;;;52.7;;
33912;SDS011;20200;52.084;5.224;2022-12-05T03:26:15;71.0;;;49.6;;
33912;SDS011;20200;52.084;5.224;2022-12-05T03:28:07;78.61;;;52.9;;
33912;SDS011;20200;52.084;5.224;2022-12-05T03:29:54;74.91;;;51.6;;
33912;SDS011;20200;52.084;5.224;2022-12-05T03:33:21;78.8;;;54.1;;
33912;SDS011;20200;52.084;5.224;2022-12-05T03:35:02;74.11;;;52.5;;
33912;SDS011;20200;52.084;5.224;2022-12-05T03:36:45;78.5;;;54.1;;
33912;SDS011;20200;52.084;5.224;2022-12-05T03:38:29;75.3;;;52.3;;
33912;SDS011;20200;52.084;5.224;2022-12-05T03:41:58;77.61;;;53.2;;
33912;SDS011;20200;52.084;5.224;2022-12-05T03:43:44;78.41;;;53.1;;
33912;SDS011;20200;52.084;5.224;2022-12-05T03:45:33;78.41;;;53.1;;
33912;SDS011;20200;52.084;5.224;2022-12-05T03:47:16;75.0;;;52.1;;
33912;SDS011;20200;52.084;5.224;2022-12-05T03:49:00;78.11;;;53.1;;
33912;SDS011;20200;52.084;5.224;2022-12-05T03:50:44;80.0;;;53.3;;
33912;SDS011;20200;52.084;5.224;2022-12-05T03:54:08;71.91;;;51.1;;
33912;SDS011;20200;52.084;5.224;2022-12-05T03:55:53;71.91;;;50.0;;
33912;SDS011;20200;52.084;5.224;2022-12-05T03:57:36;68.5;;;48.9;;
33912;SDS011;20200;52.084;5.224;2022-12-05T03:59:25;69.91;;;50.2;;
33912;SDS011;20200;52.084;5.224;2022-12-05T04:02:48;70.5;;;49.8;;
33912;SDS011;20200;52.084;5.224;2022-12-05T04:04:31;74.7;;;50.7;;
33912;SDS011;20200;52.084;5.224;2022-12-05T04:06:13;74.5;;;50.8;;
33912;SDS011;20200;52.084;5.224;2022-12-05T04:07:57;70.5;;;49.7;;
33912;SDS011;20200;52.084;5.224;2022-12-05T04:09:40;77.0;;;50.7;;
33912;SDS011;20200;52.084;5.224;2022-12-05T04:13:19;70.0;;;50.4;;
33912;SDS011;20200;52.084;5.224;2022-12-05T04:15:03;70.3;;;48.8;;
33912;SDS011;20200;52.084;5.224;2022-12-05T04:17:19;66.7;;;49.3;;
33912;SDS011;20200;52.084;5.224;2022-12-05T04:19:03;70.61;;;49.4;;
33912;SDS011;20200;52.084;5.224;2022-12-05T04:21:52;68.0;;;47.8;;
33912;SDS011;20200;52.084;5.224;2022-12-05T04:23:31;76.0;;;50.0;;
33912;SDS011;20200;52.084;5.224;2022-12-05T04:25:43;66.6;;;47.2;;
33912;SDS011;20200;52.084;5.224;2022-12-05T04:27:44;67.5;;;49.1;;
33912;SDS011;20200;52.084;5.224;2022-12-05T04:29:41;73.0;;;49.4;;
33912;SDS011;20200;52.084;5.224;2022-12-05T04:31:25;63.5;;;45.6;;
33912;SDS011;20200;52.084;5.224;2022-12-05T04:33:09;70.8;;;48.3;;
33912;SDS011;20200;52.084;5.224;2022-12-05T04:34:53;58.6;;;43.6;;
33912;SDS011;20200;52.084;5.224;2022-12-05T04:38:20;67.1;;;47.2;;
33912;SDS011;20200;52.084;5.224;2022-12-05T04:40:03;66.5;;;47.3;;
33912;SDS011;20200;52.084;5.224;2022-12-05T04:41:47;65.3;;;47.1;;
33912;SDS011;20200;52.084;5.224;2022-12-05T04:43:29;65.6;;;47.2;;
33912;SDS011;20200;52.084;5.224;2022-12-05T04:45:16;63.7;;;45.4;;
33912;SDS011;20200;52.084;5.224;2022-12-05T04:48:38;68.7;;;48.2;;
33912;SDS011;20200;52.084;5.224;2022-12-05T04:50:17;63.3;;;46.9;;
33912;SDS011;20200;52.084;5.224;2022-12-05T04:51:57;69.91;;;47.7;;
33912;SDS011;20200;52.084;5.224;2022-12-05T04:53:38;63.3;;;46.3;;
33912;SDS011;20200;52.084;5.224;2022-12-05T04:56:59;67.6;;;48.0;;
33912;SDS011;20200;52.084;5.224;2022-12-05T04:58:45;63.6;;;45.8;;
33912;SDS011;20200;52.084;5.224;2022-12-05T05:00:21;62.1;;;44.3;;
33912;SDS011;20200;52.084;5.224;2022-12-05T05:01:59;57.3;;;42.4;;
33912;SDS011;20200;52.084;5.224;2022-12-05T05:05:23;64.1;;;46.2;;
33912;SDS011;20200;52.084;5.224;2022-12-05T05:07:04;66.0;;;46.3;;
33912;SDS011;20200;52.084;5.224;2022-12-05T05:08:45;65.2;;;45.1;;
33912;SDS011;20200;52.084;5.224;2022-12-05T05:10:26;65.2;;;45.1;;
33912;SDS011;20200;52.084;5.224;2022-12-05T05:13:45;62.4;;;44.9;;
33912;SDS011;20200;52.084;5.224;2022-12-05T05:15:22;65.41;;;46.2;;
33912;SDS011;20200;52.084;5.224;2022-12-05T05:16:59;66.0;;;46.7;;
33912;SDS011;20200;52.084;5.224;2022-12-05T05:18:35;61.4;;;44.8;;
33912;SDS011;20200;52.084;5.224;2022-12-05T05:22:03;66.41;;;47.5;;
33912;SDS011;20200;52.084;5.224;2022-12-05T05:23:39;72.11;;;49.3;;
33912;SDS011;20200;52.084;5.224;2022-12-05T05:25:16;67.41;;;47.6;;
33912;SDS011;20200;52.084;5.224;2022-12-05T05:28:29;66.7;;;48.7;;
33912;SDS011;20200;52.084;5.224;2022-12-05T05:30:06;69.0;;;49.0;;
33912;SDS011;20200;52.084;5.224;2022-12-05T05:31:43;69.41;;;48.7;;
33912;SDS011;20200;52.084;5.224;2022-12-05T05:33:20;68.5;;;49.2;;
33912;SDS011;20200;52.084;5.224;2022-12-05T05:36:32;64.8;;;47.3;;
33912;SDS011;20200;52.084;5.224;2022-12-05T05:38:09;66.0;;;47.8;;
33912;SDS011;20200;52.084;5.224;2022-12-05T05:39:45;67.91;;;48.1;;
33912;SDS011;20200;52.084;5.224;2022-12-05T05:43:00;71.3;;;49.9;;
33912;SDS011;20200;52.084;5.224;2022-12-05T05:44:36;73.0;;;49.4;;
33912;SDS011;20200;52.084;5.224;2022-12-05T05:46:13;66.7;;;48.6;;
33912;SDS011;20200;52.084;5.224;2022-12-05T05:47:52;67.91;;;47.5;;
33912;SDS011;20200;52.084;5.224;2022-12-05T05:51:06;71.2;;;50.2;;
33912;SDS011;20200;52.084;5.224;2022-12-05T05:52:44;70.91;;;49.6;;
33912;SDS011;20200;52.084;5.224;2022-12-05T05:54:20;70.61;;;48.6;;
33912;SDS011;20200;52.084;5.224;2022-12-05T05:57:37;69.7;;;48.2;;
33912;SDS011;20200;52.084;5.224;2022-12-05T05:59:13;69.61;;;49.2;;
33912;SDS011;20200;52.084;5.224;2022-12-05T06:00:49;72.5;;;50.3;;
33912;SDS011;20200;52.084;5.224;2022-12-05T06:04:06;67.41;;;48.0;;
33912;SDS011;20200;52.084;5.224;2022-12-05T06:05:43;75.7;;;51.4;;
33912;SDS011;20200;52.084;5.224;2022-12-05T06:07:19;76.61;;;50.1;;
33912;SDS011;20200;52.084;5.224;2022-12-05T06:08:55;73.11;;;50.2;;
33912;SDS011;20200;52.084;5.224;2022-12-05T06:12:07;69.11;;;47.4;;
33912;SDS011;20200;52.084;5.224;2022-12-05T06:13:44;67.1;;;46.9;;
33912;SDS011;20200;52.084;5.224;2022-12-05T06:15:20;72.41;;;48.8;;
33912;SDS011;20200;52.084;5.224;2022-12-05T06:18:32;78.5;;;47.8;;
33912;SDS011;20200;52.084;5.224;2022-12-05T06:20:10;68.61;;;46.8;;
33912;SDS011;20200;52.084;5.224;2022-12-05T06:21:47;76.8;;;50.4;;
33912;SDS011;20200;52.084;5.224;2022-12-05T06:23:24;68.7;;;47.1;;
33912;SDS011;20200;52.084;5.224;2022-12-05T06:26:37;67.41;;;46.2;;
33912;SDS011;20200;52.084;5.224;2022-12-05T06:28:14;70.8;;;47.1;;
33912;SDS011;20200;52.084;5.224;2022-12-05T06:29:51;74.91;;;47.7;;
33912;SDS011;20200;52.084;5.224;2022-12-05T06:33:07;63.2;;;43.5;;
33912;SDS011;20200;52.084;5.224;2022-12-05T06:34:44;72.11;;;46.2;;
33912;SDS011;20200;52.084;5.224;2022-12-05T06:36:20;70.7;;;46.5;;
33912;SDS011;20200;52.084;5.224;2022-12-05T06:39:34;68.2;;;46.0;;
33912;SDS011;20200;52.084;5.224;2022-12-05T06:41:18;69.3;;;45.8;;
33912;SDS011;20200;52.084;5.224;2022-12-05T06:42:55;72.61;;;47.3;;
33912;SDS011;20200;52.084;5.224;2022-12-05T06:44:31;69.3;;;45.7;;
33912;SDS011;20200;52.084;5.224;2022-12-05T06:47:47;67.6;;;46.4;;
33912;SDS011;20200;52.084;5.224;2022-12-05T06:49:25;69.0;;;45.8;;
33912;SDS011;20200;52.084;5.224;2022-12-05T06:51:01;71.0;;;46.4;;
33912;SDS011;20200;52.084;5.224;2022-12-05T06:54:14;78.61;;;49.1;;
33912;SDS011;20200;52.084;5.224;2022-12-05T06:55:54;70.91;;;45.9;;
33912;SDS011;20200;52.084;5.224;2022-12-05T06:57:32;67.41;;;44.8;;
33912;SDS011;20200;52.084;5.224;2022-12-05T06:59:08;75.3;;;48.5;;
33912;SDS011;20200;52.084;5.224;2022-12-05T07:03:25;74.0;;;47.4;;
33912;SDS011;20200;52.084;5.224;2022-12-05T07:06:38;67.6;;;45.8;;
33912;SDS011;20200;52.084;5.224;2022-12-05T07:08:17;71.0;;;46.4;;
33912;SDS011;20200;52.084;5.224;2022-12-05T07:09:53;71.0;;;47.1;;
33912;SDS011;20200;52.084;5.224;2022-12-05T07:13:06;67.1;;;43.9;;
33912;SDS011;20200;52.084;5.224;2022-12-05T07:14:43;69.0;;;46.1;;
33912;SDS011;20200;52.084;5.224;2022-12-05T07:16:20;71.11;;;45.3;;
33912;SDS011;20200;52.084;5.224;2022-12-05T07:17:56;82.0;;;45.2;;
33912;SDS011;20200;52.084;5.224;2022-12-05T07:21:10;70.0;;;44.7;;
33912;SDS011;20200;52.084;5.224;2022-12-05T07:22:49;72.7;;;45.6;;
33912;SDS011;20200;52.084;5.224;2022-12-05T07:24:25;62.6;;;42.5;;
33912;SDS011;20200;52.084;5.224;2022-12-05T07:27:40;64.2;;;42.4;;
33912;SDS011;20200;52.084;5.224;2022-12-05T07:29:17;65.2;;;43.1;;
33912;SDS011;20200;52.084;5.224;2022-12-05T07:31:01;63.6;;;43.3;;
33912;SDS011;20200;52.084;5.224;2022-12-05T07:32:41;64.6;;;44.8;;
33912;SDS011;20200;52.084;5.224;2022-12-05T07:35:57;58.8;;;40.71;;
33912;SDS011;20200;52.084;5.224;2022-12-05T07:37:35;60.4;;;41.4;;
33912;SDS011;20200;52.084;5.224;2022-12-05T07:39:11;60.1;;;40.4;;
33912;SDS011;20200;52.084;5.224;2022-12-05T07:42:23;62.3;;;41.0;;
33912;SDS011;20200;52.084;5.224;2022-12-05T07:44:00;56.6;;;39.81;;
33912;SDS011;20200;52.084;5.224;2022-12-05T07:45:36;57.7;;;38.31;;
33912;SDS011;20200;52.084;5.224;2022-12-05T07:47:12;55.7;;;39.21;;
33912;SDS011;20200;52.084;5.224;2022-12-05T07:50:26;52.8;;;37.4;;
33912;SDS011;20200;52.084;5.224;2022-12-05T07:52:02;56.9;;;40.4;;
33912;SDS011;20200;52.084;5.224;2022-12-05T07:53:41;54.2;;;37.71;;
33912;SDS011;20200;52.084;5.224;2022-12-05T07:56:53;55.2;;;38.4;;
33912;SDS011;20200;52.084;5.224;2022-12-05T07:58:30;54.2;;;37.81;;
33912;SDS011;20200;52.084;5.224;2022-12-05T08:00:08;51.8;;;36.71;;
33912;SDS011;20200;52.084;5.224;2022-12-05T08:01:45;52.3;;;36.81;;
33912;SDS011;20200;52.084;5.224;2022-12-05T08:04:57;52.0;;;37.21;;
33912;SDS011;20200;52.084;5.224;2022-12-05T08:06:34;53.9;;;38.0;;
33912;SDS011;20200;52.084;5.224;2022-12-05T08:08:11;54.5;;;37.71;;
33912;SDS011;20200;52.084;5.224;2022-12-05T08:11:25;50.8;;;36.81;;
33912;SDS011;20200;52.084;5.224;2022-12-05T08:13:03;49.8;;;36.1;;
33912;SDS011;20200;52.084;5.224;2022-12-05T08:14:40;45.8;;;34.71;;
33912;SDS011;20200;52.084;5.224;2022-12-05T08:17:55;45.7;;;34.71;;
33912;SDS011;20200;52.084;5.224;2022-12-05T08:19:31;46.4;;;34.5;;
33912;SDS011;20200;52.084;5.224;2022-12-05T08:21:08;46.5;;;34.21;;
33912;SDS011;20200;52.084;5.224;2022-12-05T08:22:46;42.6;;;33.1;;
33912;SDS011;20200;52.084;5.224;2022-12-05T08:26:03;45.0;;;33.6;;
33912;SDS011;20200;52.084;5.224;2022-12-05T08:27:41;44.7;;;34.5;;
33912;SDS011;20200;52.084;5.224;2022-12-05T08:31:01;45.6;;;33.8;;
33912;SDS011;20200;52.084;5.224;2022-12-05T08:34:15;44.3;;;33.0;;
33912;SDS011;20200;52.084;5.224;2022-12-05T08:35:53;43.5;;;34.1;;
33912;SDS011;20200;52.084;5.224;2022-12-05T08:37:30;49.1;;;35.71;;
33912;SDS011;20200;52.084;5.224;2022-12-05T08:40:46;44.6;;;34.4;;
33912;SDS011;20200;52.084;5.224;2022-12-05T08:42:23;42.4;;;31.6;;
33912;SDS011;20200;52.084;5.224;2022-12-05T08:44:00;42.8;;;33.9;;
33912;SDS011;20200;52.084;5.224;2022-12-05T08:45:40;43.9;;;33.0;;
33912;SDS011;20200;52.084;5.224;2022-12-05T08:49:01;41.8;;;31.5;;
33912;SDS011;20200;52.084;5.224;2022-12-05T08:50:37;43.2;;;33.21;;
33912;SDS011;20200;52.084;5.224;2022-12-05T08:52:14;39.9;;;31.1;;
33912;SDS011;20200;52.084;5.224;2022-12-05T08:55:26;39.4;;;31.5;;
33912;SDS011;20200;52.084;5.224;2022-12-05T08:57:02;43.6;;;31.6;;
33912;SDS011;20200;52.084;5.224;2022-12-05T08:58:39;38.6;;;30.7;;
33912;SDS011;20200;52.084;5.224;2022-12-05T09:01:53;39.31;;;31.6;;
33912;SDS011;20200;52.084;5.224;2022-12-05T09:03:30;37.31;;;30.2;;
33912;SDS011;20200;52.084;5.224;2022-12-05T09:05:07;38.21;;;30.5;;
33912;SDS011;20200;52.084;5.224;2022-12-05T09:06:44;39.4;;;30.8;;
33912;SDS011;20200;52.084;5.224;2022-12-05T09:09:58;35.9;;;29.9;;
33912;SDS011;20200;52.084;5.224;2022-12-05T09:11:35;35.81;;;29.1;;
33912;SDS011;20200;52.084;5.224;2022-12-05T09:13:14;38.1;;;30.3;;
33912;SDS011;20200;52.084;5.224;2022-12-05T09:16:29;36.6;;;29.5;;
33912;SDS011;20200;52.084;5.224;2022-12-05T09:18:06;34.1;;;28.1;;
33912;SDS011;20200;52.084;5.224;2022-12-05T09:19:44;34.4;;;27.6;;
33912;SDS011;20200;52.084;5.224;2022-12-05T09:21:21;31.3;;;26.7;;
33912;SDS011;20200;52.084;5.224;2022-12-05T09:24:35;33.71;;;27.2;;
33912;SDS011;20200;52.084;5.224;2022-12-05T09:26:13;33.5;;;26.4;;
33912;SDS011;20200;52.084;5.224;2022-12-05T09:27:53;31.5;;;26.0;;
33912;SDS011;20200;52.084;5.224;2022-12-05T09:31:07;29.5;;;24.4;;
33912;SDS011;20200;52.084;5.224;2022-12-05T09:32:49;28.9;;;25.1;;
33912;SDS011;20200;52.084;5.224;2022-12-05T09:34:27;28.9;;;24.7;;
33912;SDS011;20200;52.084;5.224;2022-12-05T09:36:05;27.6;;;24.2;;
33912;SDS011;20200;52.084;5.224;2022-12-05T09:40:59;26.0;;;22.5;;
33912;SDS011;20200;52.084;5.224;2022-12-05T09:44:38;30.1;;;25.3;;
33912;SDS011;20200;52.084;5.224;2022-12-05T09:47:31;25.4;;;21.6;;
33912;SDS011;20200;52.084;5.224;2022-12-05T09:49:17;26.0;;;22.6;;
33912;SDS011;20200;52.084;5.224;2022-12-05T09:50:55;24.1;;;21.5;;
33912;SDS011;20200;52.084;5.224;2022-12-05T09:54:18;25.1;;;22.1;;
33912;SDS011;20200;52.084;5.224;2022-12-05T09:55:59;24.7;;;20.9;;
33912;SDS011;20200;52.084;5.224;2022-12-05T09:57:42;24.4;;;20.41;;
33912;SDS011;20200;52.084;5.224;2022-12-05T09:59:23;22.7;;;20.2;;
33912;SDS011;20200;52.084;5.224;2022-12-05T10:02:51;24.3;;;20.11;;
33912;SDS011;20200;52.084;5.224;2022-12-05T10:04:45;23.2;;;20.7;;
33912;SDS011;20200;52.084;5.224;2022-12-05T10:06:31;22.4;;;20.11;;
33912;SDS011;20200;52.084;5.224;2022-12-05T10:08:16;22.4;;;19.61;;
33912;SDS011;20200;52.084;5.224;2022-12-05T10:13:47;22.4;;;20.0;;
33912;SDS011;20200;52.084;5.224;2022-12-05T10:17:20;20.3;;;18.2;;
33912;SDS011;20200;52.084;5.224;2022-12-05T10:19:02;19.8;;;17.7;;
33912;SDS011;20200;52.084;5.224;2022-12-05T10:20:45;20.3;;;18.11;;
33912;SDS011;20200;52.084;5.224;2022-12-05T10:22:27;20.3;;;18.2;;
33912;SDS011;20200;52.084;5.224;2022-12-05T10:24:20;20.7;;;18.5;;
33912;SDS011;20200;52.084;5.224;2022-12-05T10:26:06;20.5;;;18.41;;
33912;SDS011;20200;52.084;5.224;2022-12-05T10:29:27;18.2;;;16.3;;
33912;SDS011;20200;52.084;5.224;2022-12-05T10:31:08;18.8;;;16.5;;
33912;SDS011;20200;52.084;5.224;2022-12-05T10:32:51;18.41;;;16.5;;
33912;SDS011;20200;52.084;5.224;2022-12-05T10:34:32;17.91;;;16.0;;
33912;SDS011;20200;52.084;5.224;2022-12-05T10:37:53;17.11;;;15.4;;
33912;SDS011;20200;52.084;5.224;2022-12-05T10:39:33;17.61;;;15.8;;
33912;SDS011;20200;52.084;5.224;2022-12-05T10:41:11;17.0;;;15.3;;
33912;SDS011;20200;52.084;5.224;2022-12-05T10:42:49;15.5;;;14.0;;
33912;SDS011;20200;52.084;5.224;2022-12-05T10:46:02;16.4;;;14.7;;
33912;SDS011;20200;52.084;5.224;2022-12-05T10:47:40;15.2;;;13.6;;
33912;SDS011;20200;52.084;5.224;2022-12-05T10:49:17;13.0;;;11.7;;
33912;SDS011;20200;52.084;5.224;2022-12-05T10:52:32;14.5;;;13.0;;
33912;SDS011;20200;52.084;5.224;2022-12-05T10:54:12;14.6;;;13.0;;
33912;SDS011;20200;52.084;5.224;2022-12-05T10:55:53;13.5;;;12.2;;
33912;SDS011;20200;52.084;5.224;2022-12-05T10:57:30;12.6;;;11.4;;
33912;SDS011;20200;52.084;5.224;2022-12-05T11:00:48;11.7;;;10.6;;
33912;SDS011;20200;52.084;5.224;2022-12-05T11:02:27;10.8;;;9.71;;
33912;SDS011;20200;52.084;5.224;2022-12-05T11:04:09;11.0;;;9.81;;
33912;SDS011;20200;52.084;5.224;2022-12-05T11:05:56;11.0;;;9.9;;
33912;SDS011;20200;52.084;5.224;2022-12-05T11:09:23;10.9;;;9.81;;
33912;SDS011;20200;52.084;5.224;2022-12-05T11:11:02;10.3;;;9.21;;
33912;SDS011;20200;52.084;5.224;2022-12-05T11:12:41;10.1;;;9.1;;
33912;SDS011;20200;52.084;5.224;2022-12-05T11:14:20;10.6;;;9.21;;
33912;SDS011;20200;52.084;5.224;2022-12-05T11:17:37;11.1;;;9.81;;
33912;SDS011;20200;52.084;5.224;2022-12-05T11:19:17;10.0;;;9.0;;
33912;SDS011;20200;52.084;5.224;2022-12-05T11:21:11;12.8;;;9.6;;
33912;SDS011;20200;52.084;5.224;2022-12-05T11:22:50;11.3;;;9.5;;
33912;SDS011;20200;52.084;5.224;2022-12-05T11:26:14;10.21;;;9.21;;
33912;SDS011;20200;52.084;5.224;2022-12-05T11:29:34;9.71;;;8.71;;
33912;SDS011;20200;52.084;5.224;2022-12-05T11:36:05;11.0;;;9.81;;
33912;SDS011;20200;52.084;5.224;2022-12-05T11:37:51;12.3;;;9.6;;
33912;SDS011;20200;52.084;5.224;2022-12-05T11:39:31;9.21;;;8.31;;
33912;SDS011;20200;52.084;5.224;2022-12-05T11:43:31;11.5;;;9.5;;
33912;SDS011;20200;52.084;5.224;2022-12-05T11:46:08;10.7;;;9.6;;
33912;SDS011;20200;52.084;5.224;2022-12-05T11:48:01;11.4;;;10.0;;
33912;SDS011;20200;52.084;5.224;2022-12-05T11:50:01;11.0;;;9.9;;
33912;SDS011;20200;52.084;5.224;2022-12-05T11:53:45;11.2;;;10.0;;
33912;SDS011;20200;52.084;5.224;2022-12-05T11:56:00;11.0;;;9.71;;
33912;SDS011;20200;52.084;5.224;2022-12-05T11:58:53;10.0;;;9.0;;
33912;SDS011;20200;52.084;5.224;2022-12-05T12:00:45;11.5;;;9.5;;
33912;SDS011;20200;52.084;5.224;2022-12-05T12:02:40;11.9;;;9.4;;
33912;SDS011;20200;52.084;5.224;2022-12-05T12:04:48;12.1;;;10.5;;
33912;SDS011;20200;52.084;5.224;2022-12-05T12:08:11;12.2;;;9.9;;
33912;SDS011;20200;52.084;5.224;2022-12-05T12:09:57;14.6;;;11.7;;
33912;SDS011;20200;52.084;5.224;2022-12-05T12:11:46;12.7;;;10.3;;
33912;SDS011;20200;52.084;5.224;2022-12-05T12:13:34;14.4;;;12.1;;
33912;SDS011;20200;52.084;5.224;2022-12-05T12:15:30;13.4;;;11.1;;
33912;SDS011;20200;52.084;5.224;2022-12-05T12:17:24;12.9;;;11.1;;
33912;SDS011;20200;52.084;5.224;2022-12-05T12:19:13;12.2;;;10.5;;
33912;SDS011;20200;52.084;5.224;2022-12-05T12:21:36;14.8;;;11.3;;
33912;SDS011;20200;52.084;5.224;2022-12-05T12:23:30;12.8;;;10.7;;
33912;SDS011;20200;52.084;5.224;2022-12-05T12:27:10;12.6;;;11.2;;
33912;SDS011;20200;52.084;5.224;2022-12-05T12:28:57;11.8;;;10.4;;
33912;SDS011;20200;52.084;5.224;2022-12-05T12:30:52;13.3;;;11.2;;
33912;SDS011;20200;52.084;5.224;2022-12-05T12:32:43;13.2;;;10.1;;
33912;SDS011;20200;52.084;5.224;2022-12-05T12:34:37;12.1;;;10.3;;
33912;SDS011;20200;52.084;5.224;2022-12-05T12:36:41;11.6;;;9.71;;
33912;SDS011;20200;52.084;5.224;2022-12-05T12:38:27;13.2;;;10.5;;
33912;SDS011;20200;52.084;5.224;2022-12-05T12:40:21;14.4;;;11.0;;
33912;SDS011;20200;52.084;5.224;2022-12-05T12:42:13;14.3;;;11.0;;
33912;SDS011;20200;52.084;5.224;2022-12-05T12:46:03;14.6;;;11.0;;
33912;SDS011;20200;52.084;5.224;2022-12-05T12:48:18;15.1;;;11.6;;
33912;SDS011;20200;52.084;5.224;2022-12-05T12:50:12;12.3;;;10.1;;
33912;SDS011;20200;52.084;5.224;2022-12-05T12:51:55;13.7;;;10.8;;
33912;SDS011;20200;52.084;5.224;2022-12-05T12:53:40;12.5;;;10.3;;
33912;SDS011;20200;52.084;5.224;2022-12-05T12:55:39;13.8;;;10.6;;
33912;SDS011;20200;52.084;5.224;2022-12-05T12:57:22;14.1;;;10.7;;
33912;SDS011;20200;52.084;5.224;2022-12-05T12:59:12;13.4;;;10.3;;